sensor_id;sensor_type;location;lat;lon;timestamp;temperature;humidity
4487;DHT22;2256;48.740;9.106;2023-08-20T00:01:24;21.90;99.90
4487;DHT22;2256;48.740;9.106;2023-08-20T00:03:52;21.90;99.90
4487;DHT22;2256;48.740;9.106;2023-08-20T00:06:20;21.90;99.90
4487;DHT22;2256;48.740;9.106;2023-08-20T00:08:47;22.00;99.90
4487;DHT22;2256;48.740;9.106;2023-08-20T00:11:16;21.90;99.90
4487;DHT22;2256;48.740;9.106;2023-08-20T00:13:43;21.90;99.90
4487;DHT22;2256;48.740;9.106;2023-08-20T00:16:10;21.90;99.90
4487;DHT22;2256;48.740;9.106;2023-08-20T00:18:38;21.90;99.90
4487;DHT22;2256;48.740;9.106;2023-08-20T00:21:05;21.90;99.90
4487;DHT22;2256;48.740;9.106;2023-08-20T00:23:33;21.90;99.90
4487;DHT22;2256;48.740;9.106;2023-08-20T00:26:00;21.90;99.90
4487;DHT22;2256;48.740;9.106;2023-08-20T00:28:29;21.90;99.90
4487;DHT22;2256;48.740;9.106;2023-08-20T00:30:56;21.90;99.90
4487;DHT22;2256;48.740;9.106;2023-08-20T00:33:23;21.90;99.90
4487;DHT22;2256;48.740;9.106;2023-08-20T00:35:49;21.90;99.90
4487;DHT22;2256;48.740;9.106;2023-08-20T00:38:16;21.80;99.90
4487;DHT22;2256;48.740;9.106;2023-08-20T00:40:43;21.70;99.90
4487;DHT22;2256;48.740;9.106;2023-08-20T00:43:10;21.70;99.90
4487;DHT22;2256;48.740;9.106;2023-08-20T00:45:39;21.70;99.90
4487;DHT22;2256;48.740;9.106;2023-08-20T00:48:07;21.70;99.90
4487;DHT22;2256;48.740;9.106;2023-08-20T00:50:34;21.60;99.90
4487;DHT22;2256;48.740;9.106;2023-08-20T00:53:01;21.60;99.90
4487;DHT22;2256;48.740;9.106;2023-08-20T00:55:28;21.50;99.90
4487;DHT22;2256;48.740;9.106;2023-08-20T00:57:55;21.40;99.90
4487;DHT22;2256;48.740;9.106;2023-08-20T01:00:23;21.50;99.90
4487;DHT22;2256;48.740;9.106;2023-08-20T01:02:51;21.40;99.90
4487;DHT22;2256;48.740;9.106;2023-08-20T01:05:18;21.50;99.90
4487;DHT22;2256;48.740;9.106;2023-08-20T01:07:58;21.60;99.90
4487;DHT22;2256;48.740;9.106;2023-08-20T01:10:35;21.50;99.90
4487;DHT22;2256;48.740;9.106;2023-08-20T01:13:04;21.50;99.90
4487;DHT22;2256;48.740;9.106;2023-08-20T01:15:32;21.50;99.90
4487;DHT22;2256;48.740;9.106;2023-08-20T01:18:00;21.40;99.90
4487;DHT22;2256;48.740;9.106;2023-08-20T01:20:30;21.40;99.90
4487;DHT22;2256;48.740;9.106;2023-08-20T01:23:24;21.40;99.90
4487;DHT22;2256;48.740;9.106;2023-08-20T01:26:08;21.30;99.90
4487;DHT22;2256;48.740;9.106;2023-08-20T01:28:40;21.30;99.90
4487;DHT22;2256;48.740;9.106;2023-08-20T01:31:08;21.30;99.90
4487;DHT22;2256;48.740;9.106;2023-08-20T01:33:35;21.30;99.90
4487;DHT22;2256;48.740;9.106;2023-08-20T01:36:01;21.30;99.90
4487;DHT22;2256;48.740;9.106;2023-08-20T01:38:34;21.30;99.90
4487;DHT22;2256;48.740;9.106;2023-08-20T01:41:02;21.30;99.90
4487;DHT22;2256;48.740;9.106;2023-08-20T01:43:29;21.10;99.90
4487;DHT22;2256;48.740;9.106;2023-08-20T01:45:57;21.10;99.90
4487;DHT22;2256;48.740;9.106;2023-08-20T01:48:23;21.00;99.90
4487;DHT22;2256;48.740;9.106;2023-08-20T01:50:50;21.00;99.90
4487;DHT22;2256;48.740;9.106;2023-08-20T01:53:17;21.00;99.90
4487;DHT22;2256;48.740;9.106;2023-08-20T01:55:43;21.00;99.90
4487;DHT22;2256;48.740;9.106;2023-08-20T01:58:10;21.00;99.90
4487;DHT22;2256;48.740;9.106;2023-08-20T02:00:37;21.10;99.90
4487;DHT22;2256;48.740;9.106;2023-08-20T02:03:05;21.10;99.90
4487;DHT22;2256;48.740;9.106;2023-08-20T02:05:32;21.10;99.90
4487;DHT22;2256;48.740;9.106;2023-08-20T02:07:58;21.00;99.90
4487;DHT22;2256;48.740;9.106;2023-08-20T02:10:25;21.10;99.90
4487;DHT22;2256;48.740;9.106;2023-08-20T02:12:52;21.10;99.90
4487;DHT22;2256;48.740;9.106;2023-08-20T02:15:18;21.10;99.90
4487;DHT22;2256;48.740;9.106;2023-08-20T02:17:45;21.10;99.90
4487;DHT22;2256;48.740;9.106;2023-08-20T02:20:14;21.10;99.90
4487;DHT22;2256;48.740;9.106;2023-08-20T02:22:40;21.10;99.90
4487;DHT22;2256;48.740;9.106;2023-08-20T02:25:07;21.10;99.90
4487;DHT22;2256;48.740;9.106;2023-08-20T02:27:34;21.00;99.90
4487;DHT22;2256;48.740;9.106;2023-08-20T02:30:01;21.00;99.90
4487;DHT22;2256;48.740;9.106;2023-08-20T02:32:28;20.80;99.90
4487;DHT22;2256;48.740;9.106;2023-08-20T02:34:55;20.70;99.90
4487;DHT22;2256;48.740;9.106;2023-08-20T02:37:23;20.70;99.90
4487;DHT22;2256;48.740;9.106;2023-08-20T02:39:50;20.70;99.90
4487;DHT22;2256;48.740;9.106;2023-08-20T02:42:16;20.70;99.90
4487;DHT22;2256;48.740;9.106;2023-08-20T02:44:43;20.70;99.90
4487;DHT22;2256;48.740;9.106;2023-08-20T02:47:10;20.80;99.90
4487;DHT22;2256;48.740;9.106;2023-08-20T02:49:36;20.70;99.90
4487;DHT22;2256;48.740;9.106;2023-08-20T02:52:03;20.70;99.90
4487;DHT22;2256;48.740;9.106;2023-08-20T02:54:32;20.70;99.90
4487;DHT22;2256;48.740;9.106;2023-08-20T02:56:59;20.80;99.90
4487;DHT22;2256;48.740;9.106;2023-08-20T02:59:26;20.70;99.90
4487;DHT22;2256;48.740;9.106;2023-08-20T03:01:53;20.70;99.90
4487;DHT22;2256;48.740;9.106;2023-08-20T03:04:19;20.60;99.90
4487;DHT22;2256;48.740;9.106;2023-08-20T03:06:46;20.50;99.90
4487;DHT22;2256;48.740;9.106;2023-08-20T03:09:13;20.60;99.90
4487;DHT22;2256;48.740;9.106;2023-08-20T03:11:41;20.60;99.90
4487;DHT22;2256;48.740;9.106;2023-08-20T03:14:08;20.60;99.90
4487;DHT22;2256;48.740;9.106;2023-08-20T03:16:35;20.50;99.90
4487;DHT22;2256;48.740;9.106;2023-08-20T03:19:01;20.50;99.90
4487;DHT22;2256;48.740;9.106;2023-08-20T03:21:28;20.40;99.90
4487;DHT22;2256;48.740;9.106;2023-08-20T03:23:55;20.40;99.90
4487;DHT22;2256;48.740;9.106;2023-08-20T03:26:21;20.30;99.90
4487;DHT22;2256;48.740;9.106;2023-08-20T03:28:49;20.30;99.90
4487;DHT22;2256;48.740;9.106;2023-08-20T03:31:16;20.30;99.90
4487;DHT22;2256;48.740;9.106;2023-08-20T03:33:43;20.30;99.90
4487;DHT22;2256;48.740;9.106;2023-08-20T03:36:10;20.30;99.90
4487;DHT22;2256;48.740;9.106;2023-08-20T03:38:37;20.20;99.90
4487;DHT22;2256;48.740;9.106;2023-08-20T03:41:03;20.30;99.90
4487;DHT22;2256;48.740;9.106;2023-08-20T03:43:30;20.30;99.90
4487;DHT22;2256;48.740;9.106;2023-08-20T03:45:58;20.40;99.90
4487;DHT22;2256;48.740;9.106;2023-08-20T03:48:25;20.30;99.90
4487;DHT22;2256;48.740;9.106;2023-08-20T03:50:51;20.40;99.90
4487;DHT22;2256;48.740;9.106;2023-08-20T03:53:18;20.40;99.90
4487;DHT22;2256;48.740;9.106;2023-08-20T03:55:48;20.30;99.90
4487;DHT22;2256;48.740;9.106;2023-08-20T03:58:16;20.20;99.90
4487;DHT22;2256;48.740;9.106;2023-08-20T04:00:43;20.10;99.90
4487;DHT22;2256;48.740;9.106;2023-08-20T04:03:11;20.20;99.90
4487;DHT22;2256;48.740;9.106;2023-08-20T04:05:39;20.20;99.90
4487;DHT22;2256;48.740;9.106;2023-08-20T04:08:06;20.10;99.90
4487;DHT22;2256;48.740;9.106;2023-08-20T04:10:33;20.10;99.90
4487;DHT22;2256;48.740;9.106;2023-08-20T04:12:59;20.20;99.90
4487;DHT22;2256;48.740;9.106;2023-08-20T04:15:26;20.30;99.90
4487;DHT22;2256;48.740;9.106;2023-08-20T04:17:53;20.30;99.90
4487;DHT22;2256;48.740;9.106;2023-08-20T04:20:21;20.30;99.90
4487;DHT22;2256;48.740;9.106;2023-08-20T04:22:48;20.40;99.90
4487;DHT22;2256;48.740;9.106;2023-08-20T04:25:15;20.40;99.90
4487;DHT22;2256;48.740;9.106;2023-08-20T04:27:42;20.30;99.90
4487;DHT22;2256;48.740;9.106;2023-08-20T04:30:10;20.20;99.90
4487;DHT22;2256;48.740;9.106;2023-08-20T04:32:37;20.20;99.90
4487;DHT22;2256;48.740;9.106;2023-08-20T04:35:04;20.30;99.90
4487;DHT22;2256;48.740;9.106;2023-08-20T04:37:32;20.20;99.90
4487;DHT22;2256;48.740;9.106;2023-08-20T04:39:59;20.30;99.90
4487;DHT22;2256;48.740;9.106;2023-08-20T04:42:25;20.20;99.90
4487;DHT22;2256;48.740;9.106;2023-08-20T04:44:52;20.20;99.90
4487;DHT22;2256;48.740;9.106;2023-08-20T04:47:19;20.20;99.90
4487;DHT22;2256;48.740;9.106;2023-08-20T04:49:45;20.30;99.90
4487;DHT22;2256;48.740;9.106;2023-08-20T04:52:12;20.30;99.90
4487;DHT22;2256;48.740;9.106;2023-08-20T04:54:40;20.40;99.90
4487;DHT22;2256;48.740;9.106;2023-08-20T04:57:07;20.40;99.90
4487;DHT22;2256;48.740;9.106;2023-08-20T04:59:33;20.40;99.90
4487;DHT22;2256;48.740;9.106;2023-08-20T05:02:00;20.50;99.90
4487;DHT22;2256;48.740;9.106;2023-08-20T05:04:27;20.50;99.90
4487;DHT22;2256;48.740;9.106;2023-08-20T05:06:53;20.60;99.90
4487;DHT22;2256;48.740;9.106;2023-08-20T05:09:21;20.70;99.90
4487;DHT22;2256;48.740;9.106;2023-08-20T05:11:49;20.60;99.90
4487;DHT22;2256;48.740;9.106;2023-08-20T05:14:15;20.60;99.90
4487;DHT22;2256;48.740;9.106;2023-08-20T05:16:42;20.60;99.90
4487;DHT22;2256;48.740;9.106;2023-08-20T05:19:09;20.60;99.90
4487;DHT22;2256;48.740;9.106;2023-08-20T05:21:36;20.50;99.90
4487;DHT22;2256;48.740;9.106;2023-08-20T05:24:03;20.50;99.90
4487;DHT22;2256;48.740;9.106;2023-08-20T05:26:30;20.50;99.90
4487;DHT22;2256;48.740;9.106;2023-08-20T05:28:58;20.70;99.90
4487;DHT22;2256;48.740;9.106;2023-08-20T05:31:25;20.80;99.90
4487;DHT22;2256;48.740;9.106;2023-08-20T05:33:51;21.00;99.90
4487;DHT22;2256;48.740;9.106;2023-08-20T05:36:18;21.10;99.90
4487;DHT22;2256;48.740;9.106;2023-08-20T05:38:45;21.30;99.90
4487;DHT22;2256;48.740;9.106;2023-08-20T05:41:11;21.40;99.90
4487;DHT22;2256;48.740;9.106;2023-08-20T05:43:38;21.50;99.90
4487;DHT22;2256;48.740;9.106;2023-08-20T05:46:06;21.40;99.90
4487;DHT22;2256;48.740;9.106;2023-08-20T05:48:33;21.50;99.90
4487;DHT22;2256;48.740;9.106;2023-08-20T05:51:00;21.50;99.90
4487;DHT22;2256;48.740;9.106;2023-08-20T05:53:27;21.50;99.90
4487;DHT22;2256;48.740;9.106;2023-08-20T05:55:54;21.70;99.90
4487;DHT22;2256;48.740;9.106;2023-08-20T05:58:20;21.80;99.90
4487;DHT22;2256;48.740;9.106;2023-08-20T06:00:47;21.80;99.90
4487;DHT22;2256;48.740;9.106;2023-08-20T06:03:15;21.90;99.90
4487;DHT22;2256;48.740;9.106;2023-08-20T06:05:42;22.10;99.90
4487;DHT22;2256;48.740;9.106;2023-08-20T06:08:08;22.40;99.90
4487;DHT22;2256;48.740;9.106;2023-08-20T06:10:36;22.70;99.90
4487;DHT22;2256;48.740;9.106;2023-08-20T06:13:03;23.10;99.90
4487;DHT22;2256;48.740;9.106;2023-08-20T06:15:30;23.50;99.90
4487;DHT22;2256;48.740;9.106;2023-08-20T06:17:57;23.80;99.90
4487;DHT22;2256;48.740;9.106;2023-08-20T06:20:25;24.20;99.90
4487;DHT22;2256;48.740;9.106;2023-08-20T06:22:52;24.40;99.90
4487;DHT22;2256;48.740;9.106;2023-08-20T06:25:19;24.70;99.90
4487;DHT22;2256;48.740;9.106;2023-08-20T06:27:45;24.90;99.90
4487;DHT22;2256;48.740;9.106;2023-08-20T06:30:12;25.00;99.90
4487;DHT22;2256;48.740;9.106;2023-08-20T06:32:39;25.10;99.90
4487;DHT22;2256;48.740;9.106;2023-08-20T06:35:07;25.10;99.90
4487;DHT22;2256;48.740;9.106;2023-08-20T06:37:38;25.30;99.90
4487;DHT22;2256;48.740;9.106;2023-08-20T06:40:06;25.80;99.90
4487;DHT22;2256;48.740;9.106;2023-08-20T06:42:32;26.70;99.90
4487;DHT22;2256;48.740;9.106;2023-08-20T06:44:59;27.70;99.90
4487;DHT22;2256;48.740;9.106;2023-08-20T06:47:26;28.50;99.90
4487;DHT22;2256;48.740;9.106;2023-08-20T06:49:53;29.60;99.90
4487;DHT22;2256;48.740;9.106;2023-08-20T06:52:20;30.60;99.90
4487;DHT22;2256;48.740;9.106;2023-08-20T06:54:48;31.70;99.90
4487;DHT22;2256;48.740;9.106;2023-08-20T06:57:15;32.40;99.90
4487;DHT22;2256;48.740;9.106;2023-08-20T06:59:42;32.50;99.90
4487;DHT22;2256;48.740;9.106;2023-08-20T07:02:09;33.20;99.90
4487;DHT22;2256;48.740;9.106;2023-08-20T07:04:36;33.40;99.90
4487;DHT22;2256;48.740;9.106;2023-08-20T07:07:03;33.80;99.90
4487;DHT22;2256;48.740;9.106;2023-08-20T07:09:31;33.90;99.90
4487;DHT22;2256;48.740;9.106;2023-08-20T07:11:59;34.50;99.60
4487;DHT22;2256;48.740;9.106;2023-08-20T07:14:26;34.90;99.20
4487;DHT22;2256;48.740;9.106;2023-08-20T07:16:53;35.30;98.30
4487;DHT22;2256;48.740;9.106;2023-08-20T07:19:19;35.60;97.90
4487;DHT22;2256;48.740;9.106;2023-08-20T07:21:46;36.10;97.30
4487;DHT22;2256;48.740;9.106;2023-08-20T07:24:13;36.30;96.50
4487;DHT22;2256;48.740;9.106;2023-08-20T07:26:39;36.50;95.80
4487;DHT22;2256;48.740;9.106;2023-08-20T07:29:08;36.70;95.80
4487;DHT22;2256;48.740;9.106;2023-08-20T07:31:35;37.30;95.20
4487;DHT22;2256;48.740;9.106;2023-08-20T07:34:02;37.80;94.50
4487;DHT22;2256;48.740;9.106;2023-08-20T07:36:29;38.00;94.10
4487;DHT22;2256;48.740;9.106;2023-08-20T07:38:56;38.00;93.40
4487;DHT22;2256;48.740;9.106;2023-08-20T07:41:23;37.90;93.60
4487;DHT22;2256;48.740;9.106;2023-08-20T07:43:50;38.10;93.50
4487;DHT22;2256;48.740;9.106;2023-08-20T07:46:18;37.90;93.60
4487;DHT22;2256;48.740;9.106;2023-08-20T07:48:45;38.10;93.20
4487;DHT22;2256;48.740;9.106;2023-08-20T07:51:11;37.80;93.30
4487;DHT22;2256;48.740;9.106;2023-08-20T07:53:38;37.30;93.60
4487;DHT22;2256;48.740;9.106;2023-08-20T07:56:05;37.30;93.80
4487;DHT22;2256;48.740;9.106;2023-08-20T07:58:32;37.50;93.40
4487;DHT22;2256;48.740;9.106;2023-08-20T08:00:58;37.10;93.50
4487;DHT22;2256;48.740;9.106;2023-08-20T08:03:26;36.90;94.20
4487;DHT22;2256;48.740;9.106;2023-08-20T08:05:54;36.90;93.80
4487;DHT22;2256;48.740;9.106;2023-08-20T08:08:21;36.10;94.50
4487;DHT22;2256;48.740;9.106;2023-08-20T08:10:48;35.90;95.00
4487;DHT22;2256;48.740;9.106;2023-08-20T08:13:17;36.20;94.60
4487;DHT22;2256;48.740;9.106;2023-08-20T08:15:44;36.50;94.30
4487;DHT22;2256;48.740;9.106;2023-08-20T08:18:11;36.80;94.40
4487;DHT22;2256;48.740;9.106;2023-08-20T08:20:41;36.80;93.90
4487;DHT22;2256;48.740;9.106;2023-08-20T08:23:07;35.90;94.80
4487;DHT22;2256;48.740;9.106;2023-08-20T08:25:34;35.70;95.50
4487;DHT22;2256;48.740;9.106;2023-08-20T08:28:01;35.30;95.50
4487;DHT22;2256;48.740;9.106;2023-08-20T08:30:30;35.30;95.90
4487;DHT22;2256;48.740;9.106;2023-08-20T08:32:58;35.90;95.50
4487;DHT22;2256;48.740;9.106;2023-08-20T08:35:25;36.30;95.30
4487;DHT22;2256;48.740;9.106;2023-08-20T08:37:54;36.70;94.60
4487;DHT22;2256;48.740;9.106;2023-08-20T08:40:24;37.20;94.50
4487;DHT22;2256;48.740;9.106;2023-08-20T08:42:53;37.20;94.40
4487;DHT22;2256;48.740;9.106;2023-08-20T08:45:21;36.80;94.40
4487;DHT22;2256;48.740;9.106;2023-08-20T08:47:48;36.70;94.40
4487;DHT22;2256;48.740;9.106;2023-08-20T08:50:15;36.40;94.30
4487;DHT22;2256;48.740;9.106;2023-08-20T08:52:45;36.10;94.70
4487;DHT22;2256;48.740;9.106;2023-08-20T08:55:15;36.10;94.70
4487;DHT22;2256;48.740;9.106;2023-08-20T08:57:41;36.00;94.50
4487;DHT22;2256;48.740;9.106;2023-08-20T09:00:09;35.90;94.50
4487;DHT22;2256;48.740;9.106;2023-08-20T09:02:36;35.70;94.50
4487;DHT22;2256;48.740;9.106;2023-08-20T09:05:05;35.80;94.30
4487;DHT22;2256;48.740;9.106;2023-08-20T09:07:32;36.00;93.70
4487;DHT22;2256;48.740;9.106;2023-08-20T09:09:59;36.20;92.90
4487;DHT22;2256;48.740;9.106;2023-08-20T09:12:27;36.10;92.60
4487;DHT22;2256;48.740;9.106;2023-08-20T09:14:55;36.10;92.50
4487;DHT22;2256;48.740;9.106;2023-08-20T09:17:26;36.20;92.70
4487;DHT22;2256;48.740;9.106;2023-08-20T09:19:56;36.40;92.40
4487;DHT22;2256;48.740;9.106;2023-08-20T09:22:23;36.50;92.20
4487;DHT22;2256;48.740;9.106;2023-08-20T09:24:54;36.70;92.40
4487;DHT22;2256;48.740;9.106;2023-08-20T09:27:21;36.90;91.60
4487;DHT22;2256;48.740;9.106;2023-08-20T09:29:50;37.30;91.80
4487;DHT22;2256;48.740;9.106;2023-08-20T09:32:19;36.70;91.50
4487;DHT22;2256;48.740;9.106;2023-08-20T09:34:47;36.50;91.90
4487;DHT22;2256;48.740;9.106;2023-08-20T09:37:15;36.30;91.90
4487;DHT22;2256;48.740;9.106;2023-08-20T09:39:42;36.20;92.40
4487;DHT22;2256;48.740;9.106;2023-08-20T09:42:10;36.40;92.00
4487;DHT22;2256;48.740;9.106;2023-08-20T09:44:38;36.30;91.90
4487;DHT22;2256;48.740;9.106;2023-08-20T09:47:08;36.20;92.20
4487;DHT22;2256;48.740;9.106;2023-08-20T09:49:39;36.30;92.50
4487;DHT22;2256;48.740;9.106;2023-08-20T09:52:07;36.30;91.70
4487;DHT22;2256;48.740;9.106;2023-08-20T09:54:50;36.50;91.40
4487;DHT22;2256;48.740;9.106;2023-08-20T09:57:26;36.40;91.00
4487;DHT22;2256;48.740;9.106;2023-08-20T09:59:54;36.60;91.10
4487;DHT22;2256;48.740;9.106;2023-08-20T10:02:22;37.10;91.00
4487;DHT22;2256;48.740;9.106;2023-08-20T10:04:49;36.80;91.30
4487;DHT22;2256;48.740;9.106;2023-08-20T10:07:17;36.60;90.80
4487;DHT22;2256;48.740;9.106;2023-08-20T10:09:46;36.10;91.00
4487;DHT22;2256;48.740;9.106;2023-08-20T10:12:16;35.50;91.50
4487;DHT22;2256;48.740;9.106;2023-08-20T10:14:42;35.20;91.30
4487;DHT22;2256;48.740;9.106;2023-08-20T10:17:11;34.90;91.70
4487;DHT22;2256;48.740;9.106;2023-08-20T10:19:40;34.50;93.50
4487;DHT22;2256;48.740;9.106;2023-08-20T10:22:08;34.40;93.40
4487;DHT22;2256;48.740;9.106;2023-08-20T10:24:46;34.10;92.60
4487;DHT22;2256;48.740;9.106;2023-08-20T10:27:23;33.60;93.40
4487;DHT22;2256;48.740;9.106;2023-08-20T10:29:52;33.30;94.80
4487;DHT22;2256;48.740;9.106;2023-08-20T10:32:19;33.10;94.60
4487;DHT22;2256;48.740;9.106;2023-08-20T10:34:51;33.00;93.60
4487;DHT22;2256;48.740;9.106;2023-08-20T10:37:27;32.80;95.40
4487;DHT22;2256;48.740;9.106;2023-08-20T10:39:54;32.80;94.70
4487;DHT22;2256;48.740;9.106;2023-08-20T10:42:27;32.50;93.40
4487;DHT22;2256;48.740;9.106;2023-08-20T10:45:01;32.50;94.50
4487;DHT22;2256;48.740;9.106;2023-08-20T10:47:37;32.70;93.70
4487;DHT22;2256;48.740;9.106;2023-08-20T10:50:05;32.70;92.80
4487;DHT22;2256;48.740;9.106;2023-08-20T10:52:38;32.70;92.90
4487;DHT22;2256;48.740;9.106;2023-08-20T10:55:07;32.80;93.60
4487;DHT22;2256;48.740;9.106;2023-08-20T10:57:34;32.80;94.10
4487;DHT22;2256;48.740;9.106;2023-08-20T11:00:03;32.80;93.20
4487;DHT22;2256;48.740;9.106;2023-08-20T11:02:37;32.90;93.90
4487;DHT22;2256;48.740;9.106;2023-08-20T11:05:16;32.80;93.90
4487;DHT22;2256;48.740;9.106;2023-08-20T11:07:45;32.90;93.50
4487;DHT22;2256;48.740;9.106;2023-08-20T11:10:13;33.10;93.70
4487;DHT22;2256;48.740;9.106;2023-08-20T11:12:40;33.30;94.30
4487;DHT22;2256;48.740;9.106;2023-08-20T11:15:08;33.40;94.00
4487;DHT22;2256;48.740;9.106;2023-08-20T11:17:40;33.40;94.00
4487;DHT22;2256;48.740;9.106;2023-08-20T11:20:09;33.30;94.00
4487;DHT22;2256;48.740;9.106;2023-08-20T11:22:38;33.30;94.00
4487;DHT22;2256;48.740;9.106;2023-08-20T11:25:09;33.10;93.60
4487;DHT22;2256;48.740;9.106;2023-08-20T11:27:40;32.90;93.70
4487;DHT22;2256;48.740;9.106;2023-08-20T11:30:08;32.70;94.00
4487;DHT22;2256;48.740;9.106;2023-08-20T11:32:36;32.60;94.40
4487;DHT22;2256;48.740;9.106;2023-08-20T11:35:04;32.60;94.30
4487;DHT22;2256;48.740;9.106;2023-08-20T11:37:33;32.60;94.30
4487;DHT22;2256;48.740;9.106;2023-08-20T11:40:00;32.60;94.50
4487;DHT22;2256;48.740;9.106;2023-08-20T11:42:27;32.60;94.10
4487;DHT22;2256;48.740;9.106;2023-08-20T11:44:55;32.60;94.90
4487;DHT22;2256;48.740;9.106;2023-08-20T11:47:22;32.90;93.90
4487;DHT22;2256;48.740;9.106;2023-08-20T11:50:02;33.00;93.80
4487;DHT22;2256;48.740;9.106;2023-08-20T11:52:30;33.10;93.60
4487;DHT22;2256;48.740;9.106;2023-08-20T11:54:58;33.00;93.20
4487;DHT22;2256;48.740;9.106;2023-08-20T11:57:25;33.10;93.30
4487;DHT22;2256;48.740;9.106;2023-08-20T11:59:52;33.20;93.70
4487;DHT22;2256;48.740;9.106;2023-08-20T12:02:25;33.10;93.10
4487;DHT22;2256;48.740;9.106;2023-08-20T12:04:54;33.00;93.70
4487;DHT22;2256;48.740;9.106;2023-08-20T12:07:25;33.10;93.90
4487;DHT22;2256;48.740;9.106;2023-08-20T12:09:52;33.10;93.00
4487;DHT22;2256;48.740;9.106;2023-08-20T12:12:22;33.20;94.70
4487;DHT22;2256;48.740;9.106;2023-08-20T12:14:49;33.30;93.20
4487;DHT22;2256;48.740;9.106;2023-08-20T12:17:17;33.60;93.20
4487;DHT22;2256;48.740;9.106;2023-08-20T12:19:44;33.70;93.00
4487;DHT22;2256;48.740;9.106;2023-08-20T12:22:10;33.70;92.80
4487;DHT22;2256;48.740;9.106;2023-08-20T12:24:37;33.50;93.10
4487;DHT22;2256;48.740;9.106;2023-08-20T12:27:04;33.50;93.20
4487;DHT22;2256;48.740;9.106;2023-08-20T12:29:32;33.60;92.70
4487;DHT22;2256;48.740;9.106;2023-08-20T12:31:59;33.60;92.90
4487;DHT22;2256;48.740;9.106;2023-08-20T12:34:26;33.30;93.30
4487;DHT22;2256;48.740;9.106;2023-08-20T12:36:54;33.30;94.10
4487;DHT22;2256;48.740;9.106;2023-08-20T12:39:21;33.30;92.80
4487;DHT22;2256;48.740;9.106;2023-08-20T12:41:48;33.30;93.40
4487;DHT22;2256;48.740;9.106;2023-08-20T12:44:15;33.20;92.70
4487;DHT22;2256;48.740;9.106;2023-08-20T12:46:43;33.10;92.50
4487;DHT22;2256;48.740;9.106;2023-08-20T12:49:10;33.20;93.40
4487;DHT22;2256;48.740;9.106;2023-08-20T12:51:36;33.40;92.30
4487;DHT22;2256;48.740;9.106;2023-08-20T12:54:03;33.40;92.40
4487;DHT22;2256;48.740;9.106;2023-08-20T12:56:30;33.50;91.90
4487;DHT22;2256;48.740;9.106;2023-08-20T12:58:57;33.40;91.90
4487;DHT22;2256;48.740;9.106;2023-08-20T13:01:24;33.50;92.00
4487;DHT22;2256;48.740;9.106;2023-08-20T13:03:52;33.40;91.70
4487;DHT22;2256;48.740;9.106;2023-08-20T13:06:20;33.00;92.20
4487;DHT22;2256;48.740;9.106;2023-08-20T13:08:47;32.90;92.80
4487;DHT22;2256;48.740;9.106;2023-08-20T13:11:17;32.90;92.60
4487;DHT22;2256;48.740;9.106;2023-08-20T13:13:45;32.90;92.70
4487;DHT22;2256;48.740;9.106;2023-08-20T13:16:12;32.90;92.80
4487;DHT22;2256;48.740;9.106;2023-08-20T13:18:40;33.10;92.90
4487;DHT22;2256;48.740;9.106;2023-08-20T13:21:08;33.40;92.60
4487;DHT22;2256;48.740;9.106;2023-08-20T13:23:35;33.60;92.50
4487;DHT22;2256;48.740;9.106;2023-08-20T13:26:02;33.50;92.60
4487;DHT22;2256;48.740;9.106;2023-08-20T13:28:29;33.50;92.40
4487;DHT22;2256;48.740;9.106;2023-08-20T13:30:55;33.50;93.00
4487;DHT22;2256;48.740;9.106;2023-08-20T13:33:22;33.50;92.40
4487;DHT22;2256;48.740;9.106;2023-08-20T13:35:49;33.40;91.90
4487;DHT22;2256;48.740;9.106;2023-08-20T13:38:18;33.40;92.60
4487;DHT22;2256;48.740;9.106;2023-08-20T13:40:46;33.60;92.30
4487;DHT22;2256;48.740;9.106;2023-08-20T13:43:14;33.70;92.00
4487;DHT22;2256;48.740;9.106;2023-08-20T13:45:40;33.70;92.70
4487;DHT22;2256;48.740;9.106;2023-08-20T13:48:07;33.60;92.90
4487;DHT22;2256;48.740;9.106;2023-08-20T13:50:34;33.60;91.90
4487;DHT22;2256;48.740;9.106;2023-08-20T13:53:00;33.50;92.40
4487;DHT22;2256;48.740;9.106;2023-08-20T13:55:29;33.40;92.30
4487;DHT22;2256;48.740;9.106;2023-08-20T13:57:56;33.40;92.30
4487;DHT22;2256;48.740;9.106;2023-08-20T14:00:24;33.70;92.00
4487;DHT22;2256;48.740;9.106;2023-08-20T14:02:52;33.70;91.40
4487;DHT22;2256;48.740;9.106;2023-08-20T14:05:19;33.70;91.70
4487;DHT22;2256;48.740;9.106;2023-08-20T14:07:45;33.40;91.80
4487;DHT22;2256;48.740;9.106;2023-08-20T14:10:12;33.30;92.50
4487;DHT22;2256;48.740;9.106;2023-08-20T14:12:40;33.30;92.00
4487;DHT22;2256;48.740;9.106;2023-08-20T14:15:08;33.40;92.30
4487;DHT22;2256;48.740;9.106;2023-08-20T14:17:35;33.60;92.30
4487;DHT22;2256;48.740;9.106;2023-08-20T14:20:02;33.60;91.80
4487;DHT22;2256;48.740;9.106;2023-08-20T14:22:29;33.50;92.00
4487;DHT22;2256;48.740;9.106;2023-08-20T14:24:56;33.30;92.30
4487;DHT22;2256;48.740;9.106;2023-08-20T14:27:22;33.00;92.60
4487;DHT22;2256;48.740;9.106;2023-08-20T14:29:51;32.90;92.70
4487;DHT22;2256;48.740;9.106;2023-08-20T14:32:17;32.70;92.70
4487;DHT22;2256;48.740;9.106;2023-08-20T14:34:44;32.60;92.90
4487;DHT22;2256;48.740;9.106;2023-08-20T14:37:11;32.60;93.00
4487;DHT22;2256;48.740;9.106;2023-08-20T14:39:39;32.60;93.40
4487;DHT22;2256;48.740;9.106;2023-08-20T14:42:06;32.70;93.50
4487;DHT22;2256;48.740;9.106;2023-08-20T14:44:33;32.70;93.80
4487;DHT22;2256;48.740;9.106;2023-08-20T14:47:01;32.60;92.70
4487;DHT22;2256;48.740;9.106;2023-08-20T14:49:31;32.50;93.00
4487;DHT22;2256;48.740;9.106;2023-08-20T14:51:57;32.20;93.20
4487;DHT22;2256;48.740;9.106;2023-08-20T14:54:25;32.00;93.10
4487;DHT22;2256;48.740;9.106;2023-08-20T14:56:52;31.80;93.60
4487;DHT22;2256;48.740;9.106;2023-08-20T14:59:18;31.70;93.60
4487;DHT22;2256;48.740;9.106;2023-08-20T15:01:45;31.60;93.60
4487;DHT22;2256;48.740;9.106;2023-08-20T15:04:13;31.50;94.00
4487;DHT22;2256;48.740;9.106;2023-08-20T15:06:40;31.60;94.20
4487;DHT22;2256;48.740;9.106;2023-08-20T15:09:07;31.60;93.90
4487;DHT22;2256;48.740;9.106;2023-08-20T15:11:40;31.60;93.70
4487;DHT22;2256;48.740;9.106;2023-08-20T15:14:07;31.80;93.60
4487;DHT22;2256;48.740;9.106;2023-08-20T15:16:34;32.00;93.90
4487;DHT22;2256;48.740;9.106;2023-08-20T15:19:01;32.10;93.50
4487;DHT22;2256;48.740;9.106;2023-08-20T15:21:30;32.30;92.90
4487;DHT22;2256;48.740;9.106;2023-08-20T15:23:56;32.30;93.10
4487;DHT22;2256;48.740;9.106;2023-08-20T15:26:24;32.20;93.30
4487;DHT22;2256;48.740;9.106;2023-08-20T15:28:51;32.30;93.70
4487;DHT22;2256;48.740;9.106;2023-08-20T15:31:19;32.40;93.00
4487;DHT22;2256;48.740;9.106;2023-08-20T15:33:45;32.70;92.30
4487;DHT22;2256;48.740;9.106;2023-08-20T15:36:12;32.80;92.50
4487;DHT22;2256;48.740;9.106;2023-08-20T15:38:40;32.70;91.90
4487;DHT22;2256;48.740;9.106;2023-08-20T15:41:07;32.40;92.00
4487;DHT22;2256;48.740;9.106;2023-08-20T15:43:34;32.20;92.60
4487;DHT22;2256;48.740;9.106;2023-08-20T15:46:01;31.80;93.10
4487;DHT22;2256;48.740;9.106;2023-08-20T15:48:28;31.80;93.10
4487;DHT22;2256;48.740;9.106;2023-08-20T15:50:55;31.80;93.00
4487;DHT22;2256;48.740;9.106;2023-08-20T15:53:21;32.00;93.20
4487;DHT22;2256;48.740;9.106;2023-08-20T15:55:49;32.00;92.80
4487;DHT22;2256;48.740;9.106;2023-08-20T15:58:16;32.10;92.90
4487;DHT22;2256;48.740;9.106;2023-08-20T16:00:43;32.20;92.20
4487;DHT22;2256;48.740;9.106;2023-08-20T16:03:10;32.30;92.80
4487;DHT22;2256;48.740;9.106;2023-08-20T16:05:38;32.20;92.40